Time;durP1;ratioP1;P1;durP2;ratioP2;P2;SDS_P1;SDS_P2;PMS_P1;PMS_P2;Temp;Humidity;BMP_temperature;BMP_pressure;BME280_temperature;BME280_humidity;BME280_pressure;Samples;Min_cycle;Max_cycle;Signal;HPM_P1;HPM_P2
2023/05/01 00:02:11;;;;;;;4.43;3.80;;;16.60;69.00;;;;;;3956498;29;20062;-47
2023/05/01 00:04:52;;;;;;;4.30;3.90;;;16.60;69.10;;;;;;3941102;29;20096;-46
2023/05/01 00:07:34;;;;;;;3.63;3.30;;;16.60;69.20;;;;;;3941596;29;20382;-46
2023/05/01 00:10:15;;;;;;;5.95;3.75;;;16.60;69.90;;;;;;3944137;29;20070;-45
2023/05/01 00:12:56;;;;;;;3.80;3.40;;;16.60;69.20;;;;;;3956259;29;20082;-45
2023/05/01 00:15:42;;;;;;;5.60;3.72;;;16.60;69.30;;;;;;3956348;29;20165;-49
2023/05/01 00:18:22;;;;;;;6.50;3.25;;;16.60;68.90;;;;;;3959297;29;20057;-46
2023/05/01 00:21:04;;;;;;;7.25;3.63;;;16.60;68.90;;;;;;3957447;29;20073;-45
2023/05/01 00:23:44;;;;;;;3.92;3.03;;;16.50;68.40;;;;;;3958846;29;20095;-45
2023/05/01 00:26:29;;;;;;;5.68;3.60;;;16.50;67.90;;;;;;3959023;29;20192;-47
2023/05/01 00:29:10;;;;;;;4.00;3.65;;;16.50;67.60;;;;;;3944398;29;20507;-46
2023/05/01 00:31:52;;;;;;;4.53;3.77;;;16.50;67.10;;;;;;3953918;30;20063;-56
2023/05/01 00:34:33;;;;;;;5.35;4.07;;;16.50;66.90;;;;;;3958871;29;20630;-55
2023/05/01 00:37:15;;;;;;;;;;;16.50;67.10;;;;;;3959511;29;20054;-54
2023/05/01 00:39:56;;;;;;;4.18;3.28;;;16.40;67.10;;;;;;3968109;29;20043;-54
2023/05/01 00:42:39;;;;;;;4.13;3.47;;;16.40;68.00;;;;;;3958790;29;20519;-56
2023/05/01 00:45:20;;;;;;;5.10;3.50;;;16.40;67.40;;;;;;3958955;29;20383;-54
2023/05/01 00:48:02;;;;;;;5.40;3.70;;;16.40;67.10;;;;;;3958200;29;20518;-55
2023/05/01 00:50:45;;;;;;;4.55;3.65;;;16.40;66.90;;;;;;3958704;29;20062;-55
2023/05/01 00:53:27;;;;;;;5.30;3.78;;;16.40;67.50;;;;;;3958122;29;20411;-52
2023/05/01 00:56:07;;;;;;;5.18;3.65;;;16.40;67.70;;;;;;3952977;30;20469;-56
2023/05/01 00:58:52;;;;;;;4.70;3.60;;;16.30;67.60;;;;;;3952961;30;20059;-52
2023/05/01 01:01:33;;;;;;;4.35;3.25;;;16.30;67.80;;;;;;3955281;29;20104;-46
2023/05/01 01:04:15;;;;;;;7.18;3.60;;;16.30;68.00;;;;;;3967519;29;20518;-45
2023/05/01 01:07:06;;;;;;;5.15;3.40;;;16.30;68.00;;;;;;3957092;29;20194;-45
2023/05/01 01:10:03;;;;;;;5.72;3.58;;;16.30;67.70;;;;;;3966843;29;20070;-49
2023/05/01 01:12:52;;;;;;;3.70;3.40;;;16.30;67.90;;;;;;3958263;29;20074;-44
2023/05/01 01:15:36;;;;;;;4.25;3.78;;;16.30;68.30;;;;;;3958120;29;20066;-45
2023/05/01 01:18:24;;;;;;;4.03;3.65;;;16.30;68.40;;;;;;3958411;29;20049;-45
2023/05/01 01:21:11;;;;;;;5.15;3.38;;;16.30;68.50;;;;;;3957747;29;20065;-45
2023/05/01 01:24:19;;;;;;;4.65;3.88;;;16.30;68.50;;;;;;3943487;30;20066;-45
2023/05/01 01:27:33;;;;;;;5.20;4.03;;;16.30;68.10;;;;;;3942778;29;20080;-45
2023/05/01 01:30:34;;;;;;;4.63;4.05;;;16.20;68.40;;;;;;3949696;29;20518;-45
2023/05/01 01:33:37;;;;;;;5.05;3.72;;;16.20;68.60;;;;;;3956448;29;20062;-45
2023/05/01 01:36:22;;;;;;;5.47;3.88;;;16.20;68.80;;;;;;3957541;29;20099;-44
2023/05/01 01:39:10;;;;;;;4.93;4.20;;;16.20;69.20;;;;;;3957313;29;20057;-45
2023/05/01 01:41:53;;;;;;;7.13;4.18;;;16.20;69.00;;;;;;3967333;29;20062;-45
2023/05/01 01:44:38;;;;;;;4.72;3.53;;;16.20;69.10;;;;;;3957822;29;20132;-45
2023/05/01 01:47:21;;;;;;;4.13;3.45;;;16.20;69.00;;;;;;3967274;29;20411;-44
2023/05/01 01:50:08;;;;;;;4.50;3.95;;;16.20;69.20;;;;;;3956982;29;20070;-45
2023/05/01 01:52:51;;;;;;;4.82;4.30;;;16.20;69.00;;;;;;3957753;29;20532;-46
2023/05/01 01:55:36;;;;;;;4.47;4.07;;;16.20;69.10;;;;;;3966900;29;20563;-53
2023/05/01 01:58:24;;;;;;;4.25;3.67;;;16.20;69.00;;;;;;3966650;29;20055;-57
2023/05/01 02:01:06;;;;;;;5.70;4.22;;;16.20;69.00;;;;;;3941606;30;20511;-54
2023/05/01 02:03:48;;;;;;;4.72;4.03;;;16.20;69.20;;;;;;3951742;29;20129;-54
2023/05/01 02:06:31;;;;;;;;;;;16.20;69.20;;;;;;3952108;29;20423;-55
2023/05/01 02:09:14;;;;;;;5.55;4.28;;;16.20;69.40;;;;;;3942496;29;20455;-53
2023/05/01 02:11:55;;;;;;;6.65;3.83;;;16.10;70.40;;;;;;3942445;30;20120;-54
2023/05/01 02:14:38;;;;;;;9.52;4.30;;;16.10;70.00;;;;;;3942581;30;20054;-53
2023/05/01 02:17:20;;;;;;;4.93;4.30;;;16.10;69.70;;;;;;3944652;29;20132;-55
2023/05/01 02:20:03;;;;;;;3.60;3.22;;;16.10;69.60;;;;;;3957343;29;20693;-56
2023/05/01 02:22:47;;;;;;;4.25;3.63;;;16.10;69.30;;;;;;3955965;29;20514;-53
2023/05/01 02:25:31;;;;;;;7.35;4.07;;;16.10;69.30;;;;;;3957086;29;20081;-53
2023/05/01 02:28:13;;;;;;;6.20;4.25;;;16.10;70.30;;;;;;3942488;30;20062;-54
2023/05/01 02:30:54;;;;;;;4.30;3.90;;;16.10;69.40;;;;;;3951702;29;20053;-52
2023/05/01 02:33:35;;;;;;;3.97;3.63;;;16.10;69.40;;;;;;3942468;30;20553;-53
2023/05/01 02:36:16;;;;;;;5.23;4.23;;;16.10;69.30;;;;;;3943600;29;20072;-55
2023/05/01 02:38:59;;;;;;;4.82;4.10;;;16.10;69.30;;;;;;3955295;29;20466;-52
2023/05/01 02:41:41;;;;;;;6.18;4.47;;;16.10;69.30;;;;;;3957133;29;20062;-53
2023/05/01 02:44:24;;;;;;;5.97;3.95;;;16.10;69.50;;;;;;3957179;29;20050;-55
2023/05/01 02:47:07;;;;;;;4.80;4.32;;;16.10;69.60;;;;;;3966068;29;20074;-56
2023/05/01 02:49:50;;;;;;;5.18;3.88;;;16.10;69.60;;;;;;3965699;29;20062;-56
2023/05/01 02:52:31;;;;;;;4.65;4.25;;;16.00;69.70;;;;;;3941871;29;20059;-56
2023/05/01 02:55:33;;;;;;;5.60;3.95;;;16.00;70.50;;;;;;3954389;29;20046;-52
2023/05/01 02:58:17;;;;;;;4.93;4.40;;;16.00;69.90;;;;;;3956135;29;20111;-55
2023/05/01 03:00:58;;;;;;;4.15;3.72;;;16.00;69.60;;;;;;3956395;29;20066;-55
2023/05/01 03:03:39;;;;;;;5.38;4.55;;;16.00;69.70;;;;;;3956799;29;20081;-54
2023/05/01 03:06:20;;;;;;;4.90;4.40;;;16.00;70.10;;;;;;3966094;29;20143;-54
2023/05/01 03:09:01;;;;;;;5.30;4.35;;;16.00;69.90;;;;;;3956253;29;20073;-54
2023/05/01 03:11:44;;;;;;;7.18;5.35;;;16.00;69.90;;;;;;3955880;29;20606;-54
2023/05/01 03:14:26;;;;;;;4.97;4.47;;;16.00;70.00;;;;;;3956243;29;20118;-56
2023/05/01 03:17:07;;;;;;;7.53;4.60;;;16.00;70.20;;;;;;3955256;29;20192;-54
2023/05/01 03:19:48;;;;;;;5.95;4.65;;;16.00;70.00;;;;;;3956693;29;20057;-53
2023/05/01 03:22:31;;;;;;;5.57;4.30;;;15.90;70.00;;;;;;3966088;29;20198;-57
2023/05/01 03:25:12;;;;;;;4.88;4.38;;;15.90;70.10;;;;;;3955624;29;20066;-54
2023/05/01 03:27:54;;;;;;;5.40;4.53;;;15.90;70.20;;;;;;3965827;29;20100;-55
2023/05/01 03:30:36;;;;;;;5.13;4.63;;;15.90;70.10;;;;;;3965912;29;20135;-55
2023/05/01 03:33:17;;;;;;;5.60;5.07;;;15.90;70.20;;;;;;3966216;29;20058;-55
2023/05/01 03:36:02;;;;;;;5.32;4.50;;;15.90;71.20;;;;;;3955355;29;20092;-55
2023/05/01 03:38:46;;;;;;;6.28;5.07;;;15.90;70.30;;;;;;3965079;29;20058;-52
2023/05/01 03:41:45;;;;;;;5.22;4.45;;;15.90;70.40;;;;;;3956107;29;20070;-55
2023/05/01 03:44:37;;;;;;;7.57;4.22;;;15.90;70.60;;;;;;3954038;29;20571;-55
2023/05/01 03:47:18;;;;;;;5.28;4.55;;;15.90;70.50;;;;;;3965911;29;20412;-52
2023/05/01 03:49:58;;;;;;;4.78;4.43;;;15.90;70.50;;;;;;3955818;29;20070;-55
2023/05/01 03:52:39;;;;;;;6.25;5.35;;;15.90;70.40;;;;;;3958504;29;20094;-55
2023/05/01 03:55:21;;;;;;;5.55;4.57;;;15.90;70.50;;;;;;3968441;29;20411;-54
2023/05/01 03:58:03;;;;;;;6.57;4.60;;;15.80;70.50;;;;;;3957825;29;20066;-56
2023/05/01 04:00:45;;;;;;;7.73;4.87;;;15.90;70.50;;;;;;3958218;29;20046;-56
2023/05/01 04:03:27;;;;;;;4.95;4.45;;;15.80;70.40;;;;;;3959108;29;20054;-52
2023/05/01 04:06:08;;;;;;;6.57;4.72;;;15.80;70.50;;;;;;3968203;29;20059;-58
2023/05/01 04:08:49;;;;;;;5.32;4.80;;;15.80;70.40;;;;;;3950790;29;20058;-51
2023/05/01 04:11:30;;;;;;;6.95;5.15;;;15.80;70.50;;;;;;3944084;29;20112;-55
2023/05/01 04:14:11;;;;;;;7.82;5.22;;;15.80;70.50;;;;;;3943583;29;20193;-53
2023/05/01 04:16:54;;;;;;;;;;;15.80;70.60;;;;;;3943565;29;20146;-53
2023/05/01 04:19:36;;;;;;;5.70;4.68;;;15.80;70.70;;;;;;3957600;29;20389;-56
2023/05/01 04:22:18;;;;;;;7.35;4.88;;;15.70;72.50;;;;;;3953314;29;20415;-52
2023/05/01 04:24:59;;;;;;;7.90;5.35;;;15.70;71.20;;;;;;3943120;30;20097;-52
2023/05/01 04:27:40;;;;;;;7.85;4.88;;;15.80;71.00;;;;;;3949788;29;20137;-54
2023/05/01 04:30:21;;;;;;;5.70;4.47;;;15.70;70.90;;;;;;3967860;29;20075;-54
2023/05/01 04:33:09;;;;;;;5.35;4.82;;;15.70;70.90;;;;;;3968010;29;20419;-56
2023/05/01 04:35:51;;;;;;;5.57;4.85;;;15.70;70.90;;;;;;3956785;29;20066;-54
2023/05/01 04:38:32;;;;;;;5.35;4.90;;;15.70;70.90;;;;;;3957662;29;20151;-53
2023/05/01 04:41:14;;;;;;;6.72;4.90;;;15.70;70.90;;;;;;3932751;29;20487;-53
2023/05/01 04:43:56;;;;;;;7.50;5.60;;;15.70;70.90;;;;;;3953251;29;20067;-55
2023/05/01 04:46:37;;;;;;;6.82;5.15;;;15.70;70.80;;;;;;3952978;29;20561;-56
2023/05/01 04:49:21;;;;;;;6.55;5.07;;;15.70;70.90;;;;;;3945310;29;20070;-54
2023/05/01 04:52:02;;;;;;;7.68;5.25;;;15.70;70.80;;;;;;3967949;29;20070;-54
2023/05/01 04:54:56;;;;;;;6.22;5.10;;;15.70;70.90;;;;;;3957330;29;20062;-52
2023/05/01 04:57:39;;;;;;;7.60;5.38;;;15.70;70.90;;;;;;3957029;29;20136;-56
2023/05/01 05:00:21;;;;;;;7.78;5.57;;;15.70;70.90;;;;;;3968036;29;20518;-56
2023/05/01 05:03:07;;;;;;;9.32;5.45;;;15.70;70.90;;;;;;3967090;29;20058;-54
2023/05/01 05:05:49;;;;;;;6.82;5.70;;;15.70;70.90;;;;;;3957336;29;20184;-51
2023/05/01 05:08:31;;;;;;;9.40;4.93;;;15.70;70.90;;;;;;3956828;29;20520;-54
2023/05/01 05:11:22;;;;;;;7.18;5.57;;;15.70;70.90;;;;;;3958779;29;20391;-54
2023/05/01 05:14:03;;;;;;;7.38;5.00;;;15.70;70.90;;;;;;3958335;29;20505;-52
2023/05/01 05:16:43;;;;;;;11.95;5.72;;;15.70;70.90;;;;;;3958399;29;20066;-58
2023/05/01 05:19:25;;;;;;;6.60;5.95;;;15.70;70.80;;;;;;3967332;29;20524;-60
2023/05/01 05:22:07;;;;;;;7.38;5.22;;;15.80;71.20;;;;;;3956951;29;20058;-58
2023/05/01 05:25:02;;;;;;;6.47;5.38;;;15.80;70.70;;;;;;3956324;29;20123;-58
2023/05/01 05:27:44;;;;;;;7.38;5.50;;;15.90;70.70;;;;;;3969343;29;20682;-58
2023/05/01 05:30:25;;;;;;;7.93;5.75;;;15.80;70.20;;;;;;3971667;29;20058;-59
2023/05/01 05:33:07;;;;;;;;;;;15.80;70.30;;;;;;3969918;29;20086;-57
2023/05/01 05:35:49;;;;;;;7.78;5.65;;;15.90;70.60;;;;;;3967413;29;20033;-54
2023/05/01 05:38:31;;;;;;;10.48;5.90;;;15.80;71.50;;;;;;3967084;29;20655;-57
2023/05/01 05:41:13;;;;;;;8.52;6.10;;;15.80;70.40;;;;;;3967618;29;20062;-57
2023/05/01 05:43:54;;;;;;;7.85;6.07;;;15.80;69.80;;;;;;3956379;29;20131;-55
2023/05/01 05:46:36;;;;;;;9.05;5.97;;;15.80;70.20;;;;;;3967399;29;20204;-53
2023/05/01 05:49:17;;;;;;;8.32;6.40;;;15.80;69.00;;;;;;3967147;29;20147;-57
2023/05/01 05:51:58;;;;;;;10.10;6.18;;;15.80;68.70;;;;;;3966832;29;20075;-55
2023/05/01 05:54:41;;;;;;;9.32;5.63;;;15.80;69.00;;;;;;3956269;29;20055;-53
2023/05/01 05:57:22;;;;;;;6.75;5.72;;;15.80;68.60;;;;;;3966703;29;20076;-56
2023/05/01 06:00:05;;;;;;;10.70;6.57;;;15.80;69.20;;;;;;3949407;29;20518;-56
2023/05/01 06:02:52;;;;;;;9.57;5.72;;;15.70;67.60;;;;;;3955754;29;20070;-46
2023/05/01 06:05:34;;;;;;;7.28;5.93;;;15.70;67.30;;;;;;3953716;29;20062;-45
2023/05/01 06:08:15;;;;;;;9.57;5.55;;;15.70;67.10;;;;;;3963427;29;21061;-45
2023/05/01 06:10:58;;;;;;;7.45;5.97;;;15.80;67.00;;;;;;3954521;29;20132;-46
2023/05/01 06:13:40;;;;;;;7.65;6.88;;;15.80;67.20;;;;;;3963592;29;20058;-45
2023/05/01 06:16:21;;;;;;;10.85;6.57;;;15.80;66.70;;;;;;3954576;29;20062;-47
2023/05/01 06:19:02;;;;;;;7.30;6.03;;;15.80;67.30;;;;;;3953782;29;20065;-47
2023/05/01 06:21:43;;;;;;;;;;;15.80;66.80;;;;;;3953460;29;20079;-46
2023/05/01 06:24:24;;;;;;;9.05;6.57;;;15.80;67.50;;;;;;3961500;29;19936;-47
2023/05/01 06:27:07;;;;;;;8.93;6.68;;;15.80;68.90;;;;;;3953404;29;20522;-47
2023/05/01 06:29:49;;;;;;;10.35;7.10;;;15.80;68.80;;;;;;3954629;29;20411;-51
2023/05/01 06:32:30;;;;;;;8.20;6.65;;;15.80;68.60;;;;;;3963834;29;20062;-57
2023/05/01 06:35:11;;;;;;;9.82;6.85;;;15.80;68.50;;;;;;3954674;29;20054;-56
2023/05/01 06:37:54;;;;;;;9.18;6.60;;;15.90;69.50;;;;;;3963580;29;20070;-49
2023/05/01 06:40:36;;;;;;;9.80;6.75;;;15.90;70.30;;;;;;3953435;29;20062;-48
2023/05/01 06:43:18;;;;;;;9.02;6.93;;;15.90;71.60;;;;;;3954397;29;20058;-49
2023/05/01 06:46:00;;;;;;;8.60;6.90;;;16.00;70.20;;;;;;3954345;29;20065;-57
2023/05/01 06:48:41;;;;;;;10.02;6.60;;;16.00;70.00;;;;;;3954358;29;20058;-57
2023/05/01 06:51:22;;;;;;;9.02;7.35;;;16.00;69.70;;;;;;3964100;29;20066;-57
2023/05/01 06:54:03;;;;;;;11.82;6.93;;;16.00;68.80;;;;;;3954641;29;20066;-57
2023/05/01 06:56:46;;;;;;;10.52;6.93;;;16.00;68.10;;;;;;3954164;29;20054;-48
2023/05/01 06:59:28;;;;;;;;;;;16.10;68.70;;;;;;3954380;29;20058;-55
2023/05/01 07:02:09;;;;;;;;;;;16.10;68.70;;;;;;3954785;29;20394;-55
2023/05/01 07:04:50;;;;;;;8.77;6.80;;;16.10;69.70;;;;;;3952760;29;20983;-56
2023/05/01 07:07:30;;;;;;;11.57;7.10;;;16.10;70.20;;;;;;3954534;29;20058;-56
2023/05/01 07:10:11;;;;;;;9.27;6.47;;;16.10;69.60;;;;;;3952874;29;20088;-49
2023/05/01 07:12:52;;;;;;;9.95;6.60;;;16.10;69.20;;;;;;3954035;29;20058;-49
2023/05/01 07:15:35;;;;;;;8.45;6.60;;;16.10;69.10;;;;;;3954137;29;20074;-56
2023/05/01 07:18:16;;;;;;;7.22;6.07;;;16.10;68.90;;;;;;3953558;29;20108;-46
2023/05/01 07:20:56;;;;;;;10.07;6.07;;;16.20;69.00;;;;;;3953844;29;20088;-46
2023/05/01 07:23:37;;;;;;;11.57;7.28;;;16.20;68.90;;;;;;3954224;29;20066;-46
2023/05/01 07:26:19;;;;;;;9.90;6.15;;;16.20;68.50;;;;;;3953217;29;20613;-56
2023/05/01 07:29:00;;;;;;;9.40;6.97;;;16.20;68.90;;;;;;3953581;29;20131;-56
2023/05/01 07:31:42;;;;;;;9.32;6.25;;;16.20;67.90;;;;;;3953904;29;20080;-48
2023/05/01 07:34:23;;;;;;;8.95;6.13;;;16.20;68.00;;;;;;3952496;29;20062;-56
2023/05/01 07:37:04;;;;;;;9.35;6.78;;;16.30;67.60;;;;;;3953691;29;20077;-49
2023/05/01 07:39:46;;;;;;;8.93;6.10;;;16.30;67.50;;;;;;3952689;29;20196;-49
2023/05/01 07:42:27;;;;;;;10.82;7.00;;;16.30;67.40;;;;;;3953087;29;20540;-56
2023/05/01 07:45:09;;;;;;;11.00;6.95;;;16.40;67.30;;;;;;3953079;29;20103;-48
2023/05/01 07:47:52;;;;;;;9.25;6.53;;;16.50;67.20;;;;;;3953908;29;20475;-57
2023/05/01 07:50:33;;;;;;;8.88;6.28;;;16.40;66.70;;;;;;3953760;29;20066;-58
2023/05/01 07:53:14;;;;;;;8.77;6.20;;;16.50;66.50;;;;;;3954007;29;20159;-57
2023/05/01 07:56:04;;;;;;;11.88;6.22;;;16.60;66.60;;;;;;3953687;29;20553;-58
2023/05/01 07:58:45;;;;;;;11.40;6.30;;;16.60;66.90;;;;;;3953108;29;20510;-56
2023/05/01 08:01:26;;;;;;;8.15;6.15;;;16.60;66.00;;;;;;3954047;29;20062;-56
2023/05/01 08:04:08;;;;;;;10.18;6.22;;;16.70;65.90;;;;;;3953766;29;20907;-57
2023/05/01 08:06:50;;;;;;;9.52;5.40;;;16.70;66.50;;;;;;3952877;29;20058;-56
2023/05/01 08:09:31;;;;;;;6.78;5.53;;;16.80;66.40;;;;;;3953532;29;20074;-56
2023/05/01 08:12:14;;;;;;;8.95;5.00;;;16.80;65.80;;;;;;3953751;29;20066;-56
2023/05/01 08:14:55;;;;;;;7.13;5.43;;;16.80;66.30;;;;;;3953839;29;20103;-58
2023/05/01 08:17:36;;;;;;;11.27;5.68;;;16.90;65.70;;;;;;3953871;29;20226;-56
2023/05/01 08:20:18;;;;;;;7.10;4.97;;;16.90;63.10;;;;;;3951566;29;20120;-48
2023/05/01 08:22:59;;;;;;;9.18;5.15;;;16.90;62.90;;;;;;3953524;29;20065;-48
2023/05/01 08:25:40;;;;;;;6.97;4.88;;;17.00;65.40;;;;;;3953059;29;20061;-47
2023/05/01 08:28:23;;;;;;;8.88;5.00;;;17.00;66.10;;;;;;3953694;29;20050;-57
2023/05/01 08:31:04;;;;;;;10.05;4.97;;;17.00;65.50;;;;;;3952593;29;20070;-47
2023/05/01 08:33:45;;;;;;;9.48;5.18;;;17.00;63.80;;;;;;3951253;29;20067;-50
2023/05/01 08:36:27;;;;;;;6.43;4.60;;;17.10;63.70;;;;;;3952325;29;20483;-47
2023/05/01 08:39:08;;;;;;;7.15;4.57;;;17.10;64.00;;;;;;3954717;29;20415;-48
2023/05/01 08:41:49;;;;;;;5.78;4.88;;;17.10;65.30;;;;;;3956644;29;20287;-56
2023/05/01 08:44:31;;;;;;;9.73;5.20;;;17.10;64.60;;;;;;3955816;29;20096;-48
2023/05/01 08:47:15;;;;;;;9.23;5.30;;;17.10;64.60;;;;;;3964563;29;20058;-49
2023/05/01 08:49:57;;;;;;;8.02;5.50;;;17.10;64.70;;;;;;3965561;29;20407;-48
2023/05/01 08:52:42;;;;;;;7.20;5.32;;;17.20;63.90;;;;;;3952078;29;20485;-49
2023/05/01 08:55:25;;;;;;;8.85;5.20;;;17.20;63.70;;;;;;3955774;29;20149;-48
2023/05/01 08:58:09;;;;;;;7.53;4.90;;;17.20;64.20;;;;;;3955527;29;20511;-48
2023/05/01 09:00:49;;;;;;;9.70;5.15;;;17.20;63.30;;;;;;3955000;29;20066;-49
2023/05/01 09:03:32;;;;;;;8.23;5.60;;;17.30;63.10;;;;;;3964981;29;20101;-48
2023/05/01 09:06:13;;;;;;;10.93;5.30;;;17.30;62.20;;;;;;3964774;29;20054;-49
2023/05/01 09:08:56;;;;;;;7.47;5.03;;;17.30;60.80;;;;;;3954124;29;20058;-48
2023/05/01 09:11:37;;;;;;;8.23;4.70;;;17.40;61.50;;;;;;3955625;29;20058;-57
2023/05/01 09:14:18;;;;;;;4.97;4.45;;;17.40;60.00;;;;;;3956062;29;20062;-57
2023/05/01 09:16:59;;;;;;;10.45;4.50;;;17.40;59.40;;;;;;3955515;29;20478;-57
2023/05/01 09:19:40;;;;;;;10.98;5.20;;;17.50;59.30;;;;;;3954122;29;20066;-57
2023/05/01 09:22:21;;;;;;;9.05;4.32;;;17.50;61.00;;;;;;3955045;29;20078;-58
2023/05/01 09:25:05;;;;;;;7.72;4.43;;;17.50;59.30;;;;;;3955801;29;20196;-56
2023/05/01 09:27:45;;;;;;;10.18;4.32;;;17.60;58.50;;;;;;3955584;29;20495;-56
2023/05/01 09:30:31;;;;;;;9.13;4.28;;;17.60;59.90;;;;;;3955218;29;20066;-56
2023/05/01 09:33:14;;;;;;;9.20;4.30;;;17.60;59.70;;;;;;3954439;29;20066;-57
2023/05/01 09:35:58;;;;;;;5.75;4.03;;;17.70;61.30;;;;;;3964476;29;20127;-57
2023/05/01 09:38:43;;;;;;;9.85;4.30;;;17.70;60.70;;;;;;3955197;29;20058;-58
2023/05/01 09:41:26;;;;;;;8.05;3.08;;;17.70;58.80;;;;;;3954872;29;20061;-57
2023/05/01 09:44:18;;;;;;;5.72;3.33;;;17.80;59.90;;;;;;3954891;29;20068;-57
2023/05/01 09:46:59;;;;;;;5.32;3.35;;;17.90;58.40;;;;;;3954954;29;20589;-56
2023/05/01 09:49:45;;;;;;;6.55;3.15;;;17.90;59.80;;;;;;3954595;29;20530;-57
2023/05/01 09:52:27;;;;;;;11.43;3.80;;;17.90;60.60;;;;;;3953514;29;20058;-57
2023/05/01 09:55:13;;;;;;;6.25;3.63;;;17.90;61.50;;;;;;3953646;29;20078;-57
2023/05/01 09:57:57;;;;;;;5.20;2.90;;;18.00;59.50;;;;;;3964451;29;20552;-58
2023/05/01 10:00:48;;;;;;;7.43;3.00;;;18.00;57.60;;;;;;3954357;29;20499;-56
2023/05/01 10:03:30;;;;;;;5.18;2.72;;;18.00;57.90;;;;;;3953479;29;20695;-57
2023/05/01 10:06:12;;;;;;;7.53;3.15;;;18.00;58.10;;;;;;3952664;29;20062;-57
2023/05/01 10:08:53;;;;;;;5.57;2.92;;;18.10;56.30;;;;;;3951375;29;20058;-50
2023/05/01 10:11:48;;;;;;;4.40;3.20;;;18.10;56.60;;;;;;3954190;29;20104;-48
2023/05/01 10:14:32;;;;;;;5.32;3.35;;;18.10;55.30;;;;;;3963358;29;20491;-51
2023/05/01 10:17:19;;;;;;;5.63;3.22;;;18.20;56.30;;;;;;3953978;29;20065;-48
2023/05/01 10:20:01;;;;;;;4.30;2.60;;;18.20;57.30;;;;;;3954343;29;20059;-49
2023/05/01 10:22:43;;;;;;;3.70;2.58;;;18.20;56.60;;;;;;3954563;29;20069;-47
2023/05/01 10:25:27;;;;;;;11.30;3.45;;;18.30;56.50;;;;;;3954186;29;20078;-50
2023/05/01 10:28:10;;;;;;;7.60;3.50;;;18.30;56.40;;;;;;3954270;29;20058;-48
2023/05/01 10:30:53;;;;;;;7.53;3.38;;;18.30;57.20;;;;;;3954034;29;20088;-50
2023/05/01 10:33:35;;;;;;;5.25;3.10;;;18.40;56.80;;;;;;3954059;29;20077;-56
2023/05/01 10:36:21;;;;;;;5.95;2.90;;;18.40;58.20;;;;;;3954031;29;20086;-57
2023/05/01 10:39:03;;;;;;;8.45;3.55;;;18.40;58.20;;;;;;3954681;29;20516;-57
2023/05/01 10:42:04;;;;;;;4.88;3.30;;;18.40;58.60;;;;;;3948573;29;20164;-56
2023/05/01 10:44:46;;;;;;;3.95;2.50;;;18.50;56.40;;;;;;3956616;29;20058;-51
2023/05/01 10:47:48;;;;;;;5.45;2.90;;;18.50;57.20;;;;;;3953645;29;20061;-49
2023/05/01 10:50:29;;;;;;;5.37;3.10;;;18.50;57.30;;;;;;3953662;29;20528;-50
2023/05/01 10:53:19;;;;;;;2.53;2.15;;;18.60;58.40;;;;;;3953742;29;20074;-49
2023/05/01 10:56:00;;;;;;;5.35;2.45;;;18.60;57.10;;;;;;3953980;29;20384;-51
2023/05/01 10:58:58;;;;;;;5.30;2.45;;;18.60;57.20;;;;;;3952596;29;20066;-49
2023/05/01 11:01:41;;;;;;;4.45;1.80;;;18.60;55.70;;;;;;3963295;29;20066;-50
2023/05/01 11:04:54;;;;;;;5.55;2.35;;;18.60;57.50;;;;;;3953553;29;20073;-47
2023/05/01 11:07:36;;;;;;;1.52;1.17;;;18.60;55.70;;;;;;3953430;29;20058;-50
2023/05/01 11:10:26;;;;;;;3.08;1.80;;;18.60;57.50;;;;;;3953526;29;20407;-50
2023/05/01 11:13:07;;;;;;;1.85;1.73;;;18.70;55.90;;;;;;3954156;29;20066;-58
2023/05/01 11:15:48;;;;;;;4.88;1.88;;;18.70;56.20;;;;;;3953500;29;20054;-58
2023/05/01 11:18:47;;;;;;;3.08;1.83;;;18.70;57.40;;;;;;3954305;29;20054;-59
2023/05/01 11:21:32;;;;;;;3.92;2.13;;;18.70;56.60;;;;;;3953957;29;20111;-58
2023/05/01 11:24:13;;;;;;;4.55;2.80;;;18.70;57.60;;;;;;3953654;29;20062;-58
2023/05/01 11:26:55;;;;;;;6.68;2.85;;;18.70;57.00;;;;;;3953307;29;20818;-57
2023/05/01 11:29:36;;;;;;;;;;;18.80;56.60;;;;;;3954239;29;20066;-57
2023/05/01 11:32:25;;;;;;;2.47;2.28;;;18.80;56.50;;;;;;3954240;29;19933;-57
2023/05/01 11:35:08;;;;;;;5.30;2.58;;;18.80;55.90;;;;;;3962512;29;20070;-58
2023/05/01 11:37:51;;;;;;;3.83;2.72;;;18.80;56.10;;;;;;3954706;29;20127;-57
2023/05/01 11:40:33;;;;;;;3.92;2.10;;;18.80;57.30;;;;;;3942513;29;20054;-57
2023/05/01 11:43:14;;;;;;;4.03;2.28;;;18.80;56.80;;;;;;3956602;29;20059;-57
2023/05/01 11:46:00;;;;;;;2.70;2.47;;;18.80;56.20;;;;;;3954929;29;20254;-58
2023/05/01 11:48:48;;;;;;;2.38;1.83;;;18.90;56.90;;;;;;3965898;29;20066;-54
2023/05/01 11:51:30;;;;;;;2.78;1.95;;;18.90;57.20;;;;;;3955647;29;20143;-50
2023/05/01 11:54:12;;;;;;;2.58;2.38;;;18.90;56.50;;;;;;3956292;29;20062;-49
2023/05/01 11:56:59;;;;;;;4.80;2.35;;;19.00;56.70;;;;;;3956095;29;20075;-51
2023/05/01 11:59:41;;;;;;;3.78;1.98;;;19.00;56.80;;;;;;3956184;29;20507;-51
2023/05/01 12:02:21;;;;;;;3.75;2.20;;;19.00;56.40;;;;;;3956367;29;20062;-56
2023/05/01 12:05:15;;;;;;;2.60;2.40;;;19.00;56.20;;;;;;3947285;29;20062;-56
2023/05/01 12:08:10;;;;;;;2.72;1.85;;;19.00;55.40;;;;;;3954953;29;20062;-56
2023/05/01 12:10:55;;;;;;;4.40;2.63;;;19.10;55.50;;;;;;3955539;29;20058;-48
2023/05/01 12:13:38;;;;;;;3.58;2.22;;;19.10;55.90;;;;;;3958936;29;20064;-56
2023/05/01 12:16:19;;;;;;;1.77;1.60;;;19.10;56.70;;;;;;3959618;29;20111;-48
2023/05/01 12:19:01;;;;;;;2.35;2.25;;;19.10;56.30;;;;;;3958172;29;20054;-50
2023/05/01 12:21:42;;;;;;;3.40;2.10;;;19.10;55.60;;;;;;3958919;29;20058;-56
2023/05/01 12:24:23;;;;;;;3.38;2.47;;;19.10;55.60;;;;;;3968034;29;20082;-56
2023/05/01 12:27:07;;;;;;;2.00;1.88;;;19.10;55.40;;;;;;3957909;29;20423;-56
2023/05/01 12:29:49;;;;;;;3.17;2.63;;;19.10;55.60;;;;;;3958727;29;20625;-49
2023/05/01 12:32:32;;;;;;;3.20;2.72;;;19.10;55.60;;;;;;3958678;29;20058;-56
2023/05/01 12:35:15;;;;;;;3.65;2.58;;;19.10;55.60;;;;;;3958680;29;20058;-59
2023/05/01 12:37:58;;;;;;;2.60;2.40;;;19.10;55.80;;;;;;3957604;29;20081;-57
2023/05/01 12:40:40;;;;;;;4.35;2.10;;;19.00;56.40;;;;;;3958103;29;20411;-58
2023/05/01 12:43:33;;;;;;;4.25;1.77;;;19.00;56.20;;;;;;3958565;29;20061;-56
2023/05/01 12:46:17;;;;;;;8.32;2.90;;;19.00;56.10;;;;;;3957082;29;20054;-56
2023/05/01 12:48:58;;;;;;;5.18;2.35;;;19.00;56.30;;;;;;3958767;29;20200;-56
2023/05/01 12:51:39;;;;;;;1.67;1.58;;;19.00;56.00;;;;;;3958764;29;20139;-56
2023/05/01 12:54:24;;;;;;;2.13;1.42;;;19.00;56.60;;;;;;3947163;29;20748;-56
2023/05/01 12:57:06;;;;;;;1.85;1.75;;;19.00;56.30;;;;;;3958135;29;20058;-56
2023/05/01 12:59:59;;;;;;;1.30;1.23;;;19.00;56.10;;;;;;3957444;29;20528;-55
2023/05/01 13:02:41;;;;;;;1.40;1.00;;;19.00;55.70;;;;;;3963450;29;20064;-56
2023/05/01 13:05:21;;;;;;;1.63;1.30;;;19.00;56.10;;;;;;3958576;29;20058;-56
2023/05/01 13:08:03;;;;;;;1.25;1.15;;;19.00;56.20;;;;;;3958644;29;20070;-56
2023/05/01 13:10:44;;;;;;;1.80;0.98;;;19.00;56.40;;;;;;3958135;29;20220;-57
2023/05/01 13:13:30;;;;;;;1.95;1.48;;;19.10;56.30;;;;;;3967526;29;20522;-59
2023/05/01 13:16:14;;;;;;;4.55;1.88;;;19.10;56.20;;;;;;3957434;29;20054;-47
2023/05/01 13:18:55;;;;;;;1.30;1.30;;;19.10;55.90;;;;;;3960621;29;20197;-47
2023/05/01 13:21:36;;;;;;;1.10;0.98;;;19.10;56.00;;;;;;3973133;29;20065;-48
2023/05/01 13:24:17;;;;;;;2.10;1.30;;;19.10;55.50;;;;;;3957686;29;20104;-49
2023/05/01 13:27:01;;;;;;;4.13;1.50;;;19.10;56.00;;;;;;3943494;29;20098;-47
2023/05/01 13:29:54;;;;;;;3.17;1.15;;;19.10;56.00;;;;;;3943018;29;20067;-48
2023/05/01 13:32:41;;;;;;;1.95;1.58;;;19.10;55.90;;;;;;3954845;29;20112;-57
2023/05/01 13:35:24;;;;;;;1.50;1.30;;;19.10;55.90;;;;;;3967272;29;20148;-56
2023/05/01 13:38:10;;;;;;;1.65;1.50;;;19.10;56.00;;;;;;3954085;29;20115;-47
2023/05/01 13:40:51;;;;;;;5.88;1.83;;;19.10;55.90;;;;;;3972074;29;20054;-47
2023/05/01 13:43:32;;;;;;;6.43;2.83;;;19.10;56.00;;;;;;3957844;29;20360;-49
2023/05/01 13:46:15;;;;;;;2.63;2.00;;;19.10;56.10;;;;;;3957966;29;20066;-52
2023/05/01 13:48:58;;;;;;;4.20;2.80;;;19.10;56.10;;;;;;3957936;29;20050;-49
2023/05/01 13:51:42;;;;;;;3.47;2.47;;;19.10;56.50;;;;;;3957454;29;20525;-56
2023/05/01 13:54:23;;;;;;;3.75;2.90;;;19.20;56.50;;;;;;3942990;29;20535;-57
2023/05/01 13:57:04;;;;;;;3.67;2.50;;;19.20;56.60;;;;;;3943053;30;20062;-57
2023/05/01 13:59:47;;;;;;;4.13;2.88;;;19.20;56.50;;;;;;3942592;29;20055;-50
2023/05/01 14:02:28;;;;;;;6.45;3.00;;;19.20;56.70;;;;;;3951195;29;20062;-48
2023/05/01 14:05:12;;;;;;;3.85;2.78;;;19.20;56.60;;;;;;3957670;29;20465;-57
2023/05/01 14:07:55;;;;;;;4.90;3.25;;;19.20;56.50;;;;;;3966829;29;20062;-57
2023/05/01 14:10:36;;;;;;;5.53;3.30;;;19.20;56.80;;;;;;3957343;29;20053;-51
2023/05/01 14:13:18;;;;;;;3.28;2.70;;;19.20;56.80;;;;;;3957648;29;20412;-57